sensor_id;sensor_type;location;lat;lon;timestamp;pressure;altitude;pressure_sealevel;temperature;humidity
43436;BME280;36399;51.444;-2.018;2023-05-16T00:01:00;101793.28;;;5.32;100.00
43436;BME280;36399;51.444;-2.018;2023-05-16T00:03:27;101786.88;;;5.42;100.00
43436;BME280;36399;51.444;-2.018;2023-05-16T00:05:52;101784.19;;;5.41;100.00
43436;BME280;36399;51.444;-2.018;2023-05-16T00:08:18;101772.69;;;5.37;100.00
43436;BME280;36399;51.444;-2.018;2023-05-16T00:10:44;101775.63;;;5.27;100.00
43436;BME280;36399;51.444;-2.018;2023-05-16T00:13:10;101770.53;;;5.14;100.00
43436;BME280;36399;51.444;-2.018;2023-05-16T00:15:36;101771.63;;;5.02;100.00
43436;BME280;36399;51.444;-2.018;2023-05-16T00:18:03;101777.31;;;4.95;100.00
43436;BME280;36399;51.444;-2.018;2023-05-16T00:20:29;101769.00;;;4.86;100.00
43436;BME280;36399;51.444;-2.018;2023-05-16T00:22:55;101773.84;;;4.80;100.00
43436;BME280;36399;51.444;-2.018;2023-05-16T00:25:22;101778.69;;;4.74;100.00
43436;BME280;36399;51.444;-2.018;2023-05-16T00:27:47;101778.31;;;4.68;100.00
43436;BME280;36399;51.444;-2.018;2023-05-16T00:30:13;101780.41;;;4.59;100.00
43436;BME280;36399;51.444;-2.018;2023-05-16T00:32:39;101782.81;;;4.56;100.00
43436;BME280;36399;51.444;-2.018;2023-05-16T00:35:05;101789.00;;;4.58;100.00
43436;BME280;36399;51.444;-2.018;2023-05-16T00:37:31;101778.88;;;4.48;100.00
43436;BME280;36399;51.444;-2.018;2023-05-16T00:39:57;101787.13;;;4.40;100.00
43436;BME280;36399;51.444;-2.018;2023-05-16T00:42:23;101783.03;;;4.29;100.00
43436;BME280;36399;51.444;-2.018;2023-05-16T00:44:49;101781.66;;;4.21;100.00
43436;BME280;36399;51.444;-2.018;2023-05-16T00:47:15;101785.31;;;4.10;100.00
43436;BME280;36399;51.444;-2.018;2023-05-16T00:49:41;101795.34;;;4.04;100.00
43436;BME280;36399;51.444;-2.018;2023-05-16T00:52:07;101792.81;;;4.05;100.00
43436;BME280;36399;51.444;-2.018;2023-05-16T00:54:33;101793.72;;;4.06;100.00
43436;BME280;36399;51.444;-2.018;2023-05-16T00:56:59;101801.78;;;4.10;100.00
43436;BME280;36399;51.444;-2.018;2023-05-16T00:59:26;101808.66;;;3.95;100.00
43436;BME280;36399;51.444;-2.018;2023-05-16T01:01:52;101807.16;;;3.99;100.00
43436;BME280;36399;51.444;-2.018;2023-05-16T01:04:18;101813.78;;;3.94;100.00
43436;BME280;36399;51.444;-2.018;2023-05-16T01:06:44;101818.06;;;3.93;100.00
43436;BME280;36399;51.444;-2.018;2023-05-16T01:09:11;101823.34;;;3.95;100.00
43436;BME280;36399;51.444;-2.018;2023-05-16T01:17:07;101821.06;;;3.71;100.00
43436;BME280;36399;51.444;-2.018;2023-05-16T01:19:51;101827.88;;;3.69;100.00
43436;BME280;36399;51.444;-2.018;2023-05-16T01:28:15;101834.03;;;3.71;100.00
43436;BME280;36399;51.444;-2.018;2023-05-16T01:30:42;101830.19;;;3.65;100.00
43436;BME280;36399;51.444;-2.018;2023-05-16T01:33:09;101832.69;;;3.50;100.00
43436;BME280;36399;51.444;-2.018;2023-05-16T01:36:01;101835.91;;;3.33;100.00
43436;BME280;36399;51.444;-2.018;2023-05-16T01:41:10;101835.41;;;3.12;100.00
43436;BME280;36399;51.444;-2.018;2023-05-16T01:43:42;101836.34;;;3.12;100.00
43436;BME280;36399;51.444;-2.018;2023-05-16T01:46:12;101842.31;;;3.25;100.00
43436;BME280;36399;51.444;-2.018;2023-05-16T01:48:50;101857.25;;;3.42;100.00
43436;BME280;36399;51.444;-2.018;2023-05-16T01:51:20;101857.69;;;3.35;100.00
43436;BME280;36399;51.444;-2.018;2023-05-16T01:53:48;101855.91;;;3.21;100.00
43436;BME280;36399;51.444;-2.018;2023-05-16T01:56:15;101863.97;;;3.12;100.00
43436;BME280;36399;51.444;-2.018;2023-05-16T01:58:41;101865.56;;;3.10;100.00
43436;BME280;36399;51.444;-2.018;2023-05-16T02:01:08;101867.75;;;3.04;100.00
43436;BME280;36399;51.444;-2.018;2023-05-16T02:03:34;101872.03;;;3.03;100.00
43436;BME280;36399;51.444;-2.018;2023-05-16T02:06:00;101879.94;;;3.05;100.00
43436;BME280;36399;51.444;-2.018;2023-05-16T02:08:30;101881.03;;;3.08;100.00
43436;BME280;36399;51.444;-2.018;2023-05-16T02:10:55;101880.81;;;3.05;100.00
43436;BME280;36399;51.444;-2.018;2023-05-16T02:13:21;101895.38;;;3.03;100.00
43436;BME280;36399;51.444;-2.018;2023-05-16T02:15:47;101886.50;;;3.00;100.00
43436;BME280;36399;51.444;-2.018;2023-05-16T02:18:13;101880.03;;;2.93;100.00
43436;BME280;36399;51.444;-2.018;2023-05-16T02:20:39;101884.91;;;2.89;100.00
43436;BME280;36399;51.444;-2.018;2023-05-16T02:23:05;101887.00;;;2.94;100.00
43436;BME280;36399;51.444;-2.018;2023-05-16T02:25:31;101894.69;;;2.93;100.00
43436;BME280;36399;51.444;-2.018;2023-05-16T02:27:57;101896.69;;;2.97;100.00
43436;BME280;36399;51.444;-2.018;2023-05-16T02:30:23;101895.97;;;2.86;100.00
43436;BME280;36399;51.444;-2.018;2023-05-16T02:32:49;101895.97;;;2.73;100.00
43436;BME280;36399;51.444;-2.018;2023-05-16T02:35:15;101897.75;;;2.74;100.00
43436;BME280;36399;51.444;-2.018;2023-05-16T02:37:41;101896.16;;;2.76;100.00
43436;BME280;36399;51.444;-2.018;2023-05-16T02:40:07;101895.75;;;2.70;100.00
43436;BME280;36399;51.444;-2.018;2023-05-16T02:42:34;101904.34;;;2.69;100.00
43436;BME280;36399;51.444;-2.018;2023-05-16T02:44:59;101903.56;;;2.83;100.00
43436;BME280;36399;51.444;-2.018;2023-05-16T02:47:25;101912.13;;;2.82;100.00
43436;BME280;36399;51.444;-2.018;2023-05-16T02:49:52;101908.34;;;2.77;100.00
43436;BME280;36399;51.444;-2.018;2023-05-16T02:52:18;101903.13;;;2.64;100.00
43436;BME280;36399;51.444;-2.018;2023-05-16T02:54:44;101905.34;;;2.71;100.00
43436;BME280;36399;51.444;-2.018;2023-05-16T02:57:10;101905.53;;;2.61;100.00
43436;BME280;36399;51.444;-2.018;2023-05-16T02:59:37;101902.06;;;2.48;100.00
43436;BME280;36399;51.444;-2.018;2023-05-16T03:02:03;101908.25;;;2.50;100.00
43436;BME280;36399;51.444;-2.018;2023-05-16T03:04:29;101909.22;;;2.39;100.00
43436;BME280;36399;51.444;-2.018;2023-05-16T03:06:55;101907.78;;;2.31;100.00
43436;BME280;36399;51.444;-2.018;2023-05-16T03:09:21;101900.41;;;2.24;100.00
43436;BME280;36399;51.444;-2.018;2023-05-16T03:11:47;101906.03;;;2.43;100.00
43436;BME280;36399;51.444;-2.018;2023-05-16T03:14:13;101898.97;;;2.16;100.00
43436;BME280;36399;51.444;-2.018;2023-05-16T03:16:39;101908.91;;;2.10;100.00
43436;BME280;36399;51.444;-2.018;2023-05-16T03:19:09;101919.69;;;2.16;100.00
43436;BME280;36399;51.444;-2.018;2023-05-16T03:21:35;101911.41;;;2.08;100.00
43436;BME280;36399;51.444;-2.018;2023-05-16T03:24:02;101912.78;;;1.92;100.00
43436;BME280;36399;51.444;-2.018;2023-05-16T03:26:28;101910.97;;;1.90;100.00
43436;BME280;36399;51.444;-2.018;2023-05-16T03:28:54;101900.41;;;1.87;100.00
43436;BME280;36399;51.444;-2.018;2023-05-16T03:31:20;101907.41;;;1.77;100.00
43436;BME280;36399;51.444;-2.018;2023-05-16T03:33:46;101911.28;;;1.70;100.00
43436;BME280;36399;51.444;-2.018;2023-05-16T03:36:12;101906.88;;;1.69;100.00
43436;BME280;36399;51.444;-2.018;2023-05-16T03:38:39;101907.03;;;1.59;100.00
43436;BME280;36399;51.444;-2.018;2023-05-16T03:41:05;101910.13;;;1.78;100.00
43436;BME280;36399;51.444;-2.018;2023-05-16T03:43:31;101923.56;;;2.09;100.00
43436;BME280;36399;51.444;-2.018;2023-05-16T03:45:57;101926.69;;;2.17;100.00
43436;BME280;36399;51.444;-2.018;2023-05-16T03:48:23;101925.50;;;2.25;100.00
43436;BME280;36399;51.444;-2.018;2023-05-16T03:50:50;101928.94;;;2.12;100.00
43436;BME280;36399;51.444;-2.018;2023-05-16T03:53:16;101923.88;;;2.14;100.00
43436;BME280;36399;51.444;-2.018;2023-05-16T03:55:42;101922.69;;;1.85;100.00
43436;BME280;36399;51.444;-2.018;2023-05-16T03:58:08;101912.50;;;1.75;100.00
43436;BME280;36399;51.444;-2.018;2023-05-16T04:00:34;101923.19;;;1.68;100.00
43436;BME280;36399;51.444;-2.018;2023-05-16T04:03:01;101922.19;;;1.54;100.00
43436;BME280;36399;51.444;-2.018;2023-05-16T04:05:27;101924.44;;;1.50;100.00
43436;BME280;36399;51.444;-2.018;2023-05-16T04:07:53;101928.16;;;1.42;100.00
43436;BME280;36399;51.444;-2.018;2023-05-16T04:10:19;101927.72;;;1.36;100.00
43436;BME280;36399;51.444;-2.018;2023-05-16T04:12:46;101927.94;;;1.39;100.00
43436;BME280;36399;51.444;-2.018;2023-05-16T04:15:11;101935.13;;;1.43;100.00
43436;BME280;36399;51.444;-2.018;2023-05-16T04:17:37;101940.75;;;1.49;100.00
43436;BME280;36399;51.444;-2.018;2023-05-16T04:20:05;101940.97;;;1.52;100.00
43436;BME280;36399;51.444;-2.018;2023-05-16T04:22:31;101943.56;;;1.52;100.00
43436;BME280;36399;51.444;-2.018;2023-05-16T04:24:57;101948.19;;;1.56;100.00
43436;BME280;36399;51.444;-2.018;2023-05-16T04:27:23;101950.00;;;1.57;100.00
43436;BME280;36399;51.444;-2.018;2023-05-16T04:29:49;101949.09;;;1.56;100.00
43436;BME280;36399;51.444;-2.018;2023-05-16T04:32:15;101953.59;;;1.59;100.00
43436;BME280;36399;51.444;-2.018;2023-05-16T04:34:42;101965.53;;;1.57;100.00
43436;BME280;36399;51.444;-2.018;2023-05-16T04:37:10;101962.25;;;1.71;100.00
43436;BME280;36399;51.444;-2.018;2023-05-16T04:39:36;101966.19;;;1.66;100.00
43436;BME280;36399;51.444;-2.018;2023-05-16T04:42:02;101966.19;;;1.66;100.00
43436;BME280;36399;51.444;-2.018;2023-05-16T04:44:29;101965.28;;;1.77;100.00
43436;BME280;36399;51.444;-2.018;2023-05-16T04:46:56;101972.69;;;1.84;100.00
43436;BME280;36399;51.444;-2.018;2023-05-16T04:49:22;101974.34;;;1.96;100.00
43436;BME280;36399;51.444;-2.018;2023-05-16T04:51:48;101969.16;;;1.96;100.00
43436;BME280;36399;51.444;-2.018;2023-05-16T04:54:14;101973.81;;;1.88;100.00
43436;BME280;36399;51.444;-2.018;2023-05-16T04:56:40;101976.72;;;1.93;100.00
43436;BME280;36399;51.444;-2.018;2023-05-16T04:59:06;101977.63;;;1.93;100.00
43436;BME280;36399;51.444;-2.018;2023-05-16T05:01:32;101985.03;;;2.00;100.00
43436;BME280;36399;51.444;-2.018;2023-05-16T05:03:58;101982.78;;;2.05;100.00
43436;BME280;36399;51.444;-2.018;2023-05-16T05:06:24;101982.56;;;2.13;100.00
43436;BME280;36399;51.444;-2.018;2023-05-16T05:08:50;101987.28;;;2.19;100.00
43436;BME280;36399;51.444;-2.018;2023-05-16T05:11:16;101990.97;;;2.22;100.00
43436;BME280;36399;51.444;-2.018;2023-05-16T05:13:42;101989.28;;;2.23;100.00
43436;BME280;36399;51.444;-2.018;2023-05-16T05:16:08;101994.69;;;2.26;100.00
43436;BME280;36399;51.444;-2.018;2023-05-16T05:18:34;101994.09;;;2.30;100.00
43436;BME280;36399;51.444;-2.018;2023-05-16T05:21:00;101996.09;;;2.34;100.00
43436;BME280;36399;51.444;-2.018;2023-05-16T05:23:26;102010.13;;;2.49;100.00
43436;BME280;36399;51.444;-2.018;2023-05-16T05:25:52;102006.38;;;2.58;100.00
43436;BME280;36399;51.444;-2.018;2023-05-16T05:28:18;102014.63;;;2.64;100.00
43436;BME280;36399;51.444;-2.018;2023-05-16T05:30:45;102022.22;;;2.74;100.00
43436;BME280;36399;51.444;-2.018;2023-05-16T05:33:16;102022.47;;;2.90;100.00
43436;BME280;36399;51.444;-2.018;2023-05-16T05:35:43;102029.50;;;3.04;100.00
43436;BME280;36399;51.444;-2.018;2023-05-16T05:38:09;102034.44;;;3.13;100.00
43436;BME280;36399;51.444;-2.018;2023-05-16T05:40:35;102046.75;;;3.29;100.00
43436;BME280;36399;51.444;-2.018;2023-05-16T05:43:01;102052.97;;;3.44;100.00
43436;BME280;36399;51.444;-2.018;2023-05-16T05:45:27;102053.75;;;3.43;100.00
43436;BME280;36399;51.444;-2.018;2023-05-16T05:47:53;102056.56;;;3.46;100.00
43436;BME280;36399;51.444;-2.018;2023-05-16T05:50:19;102055.16;;;3.51;100.00
43436;BME280;36399;51.444;-2.018;2023-05-16T05:52:45;102064.34;;;3.59;100.00
43436;BME280;36399;51.444;-2.018;2023-05-16T05:55:11;102065.00;;;3.68;100.00
43436;BME280;36399;51.444;-2.018;2023-05-16T05:57:37;102071.59;;;3.76;100.00
43436;BME280;36399;51.444;-2.018;2023-05-16T06:00:03;102073.19;;;3.88;100.00
43436;BME280;36399;51.444;-2.018;2023-05-16T06:02:30;102073.19;;;4.01;100.00
43436;BME280;36399;51.444;-2.018;2023-05-16T06:04:56;102070.56;;;4.14;100.00
43436;BME280;36399;51.444;-2.018;2023-05-16T06:07:22;102079.06;;;4.25;100.00
43436;BME280;36399;51.444;-2.018;2023-05-16T06:09:48;102068.75;;;4.39;100.00
43436;BME280;36399;51.444;-2.018;2023-05-16T06:12:14;102066.91;;;4.52;100.00
43436;BME280;36399;51.444;-2.018;2023-05-16T06:14:40;102070.16;;;4.62;100.00
43436;BME280;36399;51.444;-2.018;2023-05-16T06:17:06;102076.16;;;4.74;100.00
43436;BME280;36399;51.444;-2.018;2023-05-16T06:19:31;102070.91;;;4.88;100.00
43436;BME280;36399;51.444;-2.018;2023-05-16T06:21:57;102078.41;;;5.11;100.00
43436;BME280;36399;51.444;-2.018;2023-05-16T06:24:23;102071.44;;;5.25;100.00
43436;BME280;36399;51.444;-2.018;2023-05-16T06:26:49;102069.47;;;5.50;100.00
43436;BME280;36399;51.444;-2.018;2023-05-16T06:29:18;102057.78;;;5.58;100.00
43436;BME280;36399;51.444;-2.018;2023-05-16T06:31:44;102050.59;;;5.69;100.00
43436;BME280;36399;51.444;-2.018;2023-05-16T06:34:11;102037.31;;;5.94;100.00
43436;BME280;36399;51.444;-2.018;2023-05-16T06:36:37;102030.19;;;6.06;100.00
43436;BME280;36399;51.444;-2.018;2023-05-16T06:39:03;102020.59;;;6.21;100.00
43436;BME280;36399;51.444;-2.018;2023-05-16T06:41:29;102009.88;;;6.31;100.00
43436;BME280;36399;51.444;-2.018;2023-05-16T06:43:55;102005.00;;;6.54;100.00
43436;BME280;36399;51.444;-2.018;2023-05-16T06:46:21;101985.91;;;6.71;100.00
43436;BME280;36399;51.444;-2.018;2023-05-16T06:48:47;101985.03;;;6.87;100.00
43436;BME280;36399;51.444;-2.018;2023-05-16T06:51:13;101974.97;;;6.94;100.00
43436;BME280;36399;51.444;-2.018;2023-05-16T06:53:40;101955.59;;;7.07;100.00
43436;BME280;36399;51.444;-2.018;2023-05-16T06:56:06;101942.41;;;7.22;100.00
43436;BME280;36399;51.444;-2.018;2023-05-16T06:58:32;101921.78;;;7.44;100.00
43436;BME280;36399;51.444;-2.018;2023-05-16T07:00:59;101900.09;;;7.65;100.00
43436;BME280;36399;51.444;-2.018;2023-05-16T07:03:25;101877.00;;;7.74;100.00
43436;BME280;36399;51.444;-2.018;2023-05-16T07:05:51;101868.19;;;7.89;100.00
43436;BME280;36399;51.444;-2.018;2023-05-16T07:08:17;101846.16;;;8.04;100.00
43436;BME280;36399;51.444;-2.018;2023-05-16T07:10:43;101829.91;;;8.11;100.00
43436;BME280;36399;51.444;-2.018;2023-05-16T07:13:09;101813.72;;;8.19;100.00
43436;BME280;36399;51.444;-2.018;2023-05-16T07:15:35;101817.25;;;8.39;100.00
43436;BME280;36399;51.444;-2.018;2023-05-16T07:18:01;101818.56;;;8.49;100.00
43436;BME280;36399;51.444;-2.018;2023-05-16T07:20:27;101817.66;;;8.69;100.00
43436;BME280;36399;51.444;-2.018;2023-05-16T07:22:53;101806.69;;;8.78;100.00
43436;BME280;36399;51.444;-2.018;2023-05-16T07:25:23;101798.88;;;9.00;100.00
43436;BME280;36399;51.444;-2.018;2023-05-16T07:27:49;101789.56;;;9.07;100.00
43436;BME280;36399;51.444;-2.018;2023-05-16T07:30:15;101784.56;;;9.13;100.00
43436;BME280;36399;51.444;-2.018;2023-05-16T07:32:41;101778.34;;;9.11;100.00
43436;BME280;36399;51.444;-2.018;2023-05-16T07:35:11;101774.53;;;9.25;100.00
43436;BME280;36399;51.444;-2.018;2023-05-16T07:37:38;101780.81;;;9.29;100.00
43436;BME280;36399;51.444;-2.018;2023-05-16T07:40:06;101777.66;;;9.37;100.00
43436;BME280;36399;51.444;-2.018;2023-05-16T07:42:32;101778.84;;;9.45;100.00
43436;BME280;36399;51.444;-2.018;2023-05-16T07:44:58;101774.06;;;9.58;100.00
43436;BME280;36399;51.444;-2.018;2023-05-16T07:47:24;101760.75;;;9.75;100.00
43436;BME280;36399;51.444;-2.018;2023-05-16T07:49:50;101761.69;;;9.77;100.00
43436;BME280;36399;51.444;-2.018;2023-05-16T07:52:16;101764.69;;;9.88;100.00
43436;BME280;36399;51.444;-2.018;2023-05-16T07:54:45;101749.88;;;9.89;100.00
43436;BME280;36399;51.444;-2.018;2023-05-16T07:57:16;101741.78;;;10.06;100.00
43436;BME280;36399;51.444;-2.018;2023-05-16T07:59:42;101747.75;;;10.02;100.00
43436;BME280;36399;51.444;-2.018;2023-05-16T08:02:10;101744.63;;;10.12;100.00
43436;BME280;36399;51.444;-2.018;2023-05-16T08:04:36;101746.84;;;10.26;100.00
43436;BME280;36399;51.444;-2.018;2023-05-16T08:07:02;101752.09;;;10.26;100.00
43436;BME280;36399;51.444;-2.018;2023-05-16T08:09:28;101755.53;;;10.49;100.00
43436;BME280;36399;51.444;-2.018;2023-05-16T08:11:55;101761.97;;;10.58;100.00
43436;BME280;36399;51.444;-2.018;2023-05-16T08:14:21;101764.06;;;10.68;100.00
43436;BME280;36399;51.444;-2.018;2023-05-16T08:16:47;101747.47;;;10.69;100.00
43436;BME280;36399;51.444;-2.018;2023-05-16T08:19:12;101751.22;;;10.78;100.00
43436;BME280;36399;51.444;-2.018;2023-05-16T08:21:38;101739.09;;;10.81;100.00
43436;BME280;36399;51.444;-2.018;2023-05-16T08:24:05;101735.47;;;10.78;100.00
43436;BME280;36399;51.444;-2.018;2023-05-16T08:26:31;101738.28;;;10.84;100.00
43436;BME280;36399;51.444;-2.018;2023-05-16T08:28:57;101744.75;;;10.93;100.00
43436;BME280;36399;51.444;-2.018;2023-05-16T08:31:23;101739.00;;;11.05;100.00
43436;BME280;36399;51.444;-2.018;2023-05-16T08:33:49;101733.94;;;11.11;100.00
43436;BME280;36399;51.444;-2.018;2023-05-16T08:36:15;101720.66;;;11.06;100.00
43436;BME280;36399;51.444;-2.018;2023-05-16T08:38:44;101724.50;;;11.18;100.00
43436;BME280;36399;51.444;-2.018;2023-05-16T08:41:11;101725.75;;;11.30;100.00
43436;BME280;36399;51.444;-2.018;2023-05-16T08:43:37;101722.19;;;11.28;100.00
43436;BME280;36399;51.444;-2.018;2023-05-16T08:46:06;101729.59;;;11.42;100.00
43436;BME280;36399;51.444;-2.018;2023-05-16T08:48:33;101728.28;;;11.27;100.00
43436;BME280;36399;51.444;-2.018;2023-05-16T08:51:01;101718.88;;;11.05;100.00
43436;BME280;36399;51.444;-2.018;2023-05-16T08:53:38;101720.22;;;11.21;100.00
43436;BME280;36399;51.444;-2.018;2023-05-16T08:56:06;101712.03;;;11.41;100.00
43436;BME280;36399;51.444;-2.018;2023-05-16T08:58:34;101711.59;;;11.55;100.00
43436;BME280;36399;51.444;-2.018;2023-05-16T09:01:00;101713.00;;;11.74;100.00
43436;BME280;36399;51.444;-2.018;2023-05-16T09:03:29;101713.34;;;11.55;100.00
43436;BME280;36399;51.444;-2.018;2023-05-16T09:05:55;101706.09;;;11.46;100.00
43436;BME280;36399;51.444;-2.018;2023-05-16T09:08:22;101708.75;;;11.48;100.00
43436;BME280;36399;51.444;-2.018;2023-05-16T09:10:48;101692.97;;;11.48;100.00
43436;BME280;36399;51.444;-2.018;2023-05-16T09:13:14;101703.22;;;11.68;100.00
43436;BME280;36399;51.444;-2.018;2023-05-16T09:15:40;101700.72;;;12.05;100.00
43436;BME280;36399;51.444;-2.018;2023-05-16T09:18:11;101688.97;;;12.59;100.00
43436;BME280;36399;51.444;-2.018;2023-05-16T09:20:42;101695.47;;;13.11;100.00
43436;BME280;36399;51.444;-2.018;2023-05-16T09:23:11;101679.34;;;12.99;100.00
43436;BME280;36399;51.444;-2.018;2023-05-16T09:25:38;101687.34;;;13.02;100.00
43436;BME280;36399;51.444;-2.018;2023-05-16T09:28:09;101675.38;;;13.57;100.00
43436;BME280;36399;51.444;-2.018;2023-05-16T09:30:35;101682.22;;;13.49;100.00
43436;BME280;36399;51.444;-2.018;2023-05-16T09:33:05;101689.72;;;13.29;100.00
43436;BME280;36399;51.444;-2.018;2023-05-16T09:35:31;101689.53;;;13.20;100.00
43436;BME280;36399;51.444;-2.018;2023-05-16T09:37:57;101685.47;;;12.98;100.00
43436;BME280;36399;51.444;-2.018;2023-05-16T09:40:24;101692.19;;;12.84;100.00
43436;BME280;36399;51.444;-2.018;2023-05-16T09:43:03;101694.28;;;12.99;100.00
43436;BME280;36399;51.444;-2.018;2023-05-16T09:45:31;101691.25;;;13.18;100.00
43436;BME280;36399;51.444;-2.018;2023-05-16T09:48:05;101688.69;;;13.22;100.00
43436;BME280;36399;51.444;-2.018;2023-05-16T09:50:32;101691.75;;;13.42;100.00
43436;BME280;36399;51.444;-2.018;2023-05-16T09:53:00;101693.28;;;13.31;100.00
43436;BME280;36399;51.444;-2.018;2023-05-16T09:55:26;101690.81;;;13.82;100.00
43436;BME280;36399;51.444;-2.018;2023-05-16T09:57:52;101695.34;;;14.38;100.00
43436;BME280;36399;51.444;-2.018;2023-05-16T10:00:18;101688.34;;;14.40;100.00
43436;BME280;36399;51.444;-2.018;2023-05-16T10:02:44;101697.56;;;13.68;100.00
43436;BME280;36399;51.444;-2.018;2023-05-16T10:05:10;101689.09;;;13.84;100.00
43436;BME280;36399;51.444;-2.018;2023-05-16T10:07:36;101690.50;;;14.12;100.00
43436;BME280;36399;51.444;-2.018;2023-05-16T10:10:07;101688.28;;;13.88;100.00
43436;BME280;36399;51.444;-2.018;2023-05-16T10:12:35;101695.47;;;13.52;100.00
43436;BME280;36399;51.444;-2.018;2023-05-16T10:15:03;101695.78;;;13.66;100.00
43436;BME280;36399;51.444;-2.018;2023-05-16T10:17:33;101699.38;;;15.25;100.00
43436;BME280;36399;51.444;-2.018;2023-05-16T10:20:06;101687.66;;;16.65;100.00
43436;BME280;36399;51.444;-2.018;2023-05-16T10:22:35;101685.31;;;17.08;100.00
43436;BME280;36399;51.444;-2.018;2023-05-16T10:25:35;101688.88;;;16.05;100.00
43436;BME280;36399;51.444;-2.018;2023-05-16T10:28:04;101681.59;;;15.84;100.00
43436;BME280;36399;51.444;-2.018;2023-05-16T10:30:32;101688.78;;;15.25;100.00
43436;BME280;36399;51.444;-2.018;2023-05-16T10:33:00;101682.63;;;15.24;100.00
43436;BME280;36399;51.444;-2.018;2023-05-16T10:35:26;101694.69;;;15.07;100.00
43436;BME280;36399;51.444;-2.018;2023-05-16T10:37:52;101677.06;;;15.72;100.00
43436;BME280;36399;51.444;-2.018;2023-05-16T10:40:19;101674.41;;;16.65;100.00
43436;BME280;36399;51.444;-2.018;2023-05-16T10:43:03;101676.69;;;16.22;100.00
43436;BME280;36399;51.444;-2.018;2023-05-16T10:45:30;101682.53;;;15.88;100.00
43436;BME280;36399;51.444;-2.018;2023-05-16T10:47:57;101667.09;;;15.53;100.00
43436;BME280;36399;51.444;-2.018;2023-05-16T10:50:33;101681.56;;;16.69;100.00
43436;BME280;36399;51.444;-2.018;2023-05-16T10:53:17;101675.81;;;17.58;100.00
43436;BME280;36399;51.444;-2.018;2023-05-16T10:58:22;101682.25;;;16.54;100.00
43436;BME280;36399;51.444;-2.018;2023-05-16T11:00:48;101684.56;;;16.13;100.00
43436;BME280;36399;51.444;-2.018;2023-05-16T11:03:22;101680.84;;;16.97;100.00
43436;BME280;36399;51.444;-2.018;2023-05-16T11:05:53;101693.19;;;16.94;100.00
43436;BME280;36399;51.444;-2.018;2023-05-16T11:08:24;101682.81;;;16.15;100.00
43436;BME280;36399;51.444;-2.018;2023-05-16T11:11:53;101687.50;;;15.60;100.00
43436;BME280;36399;51.444;-2.018;2023-05-16T11:14:02;101693.38;;;15.38;100.00
43436;BME280;36399;51.444;-2.018;2023-05-16T11:16:29;101678.47;;;16.22;100.00
43436;BME280;36399;51.444;-2.018;2023-05-16T11:19:03;101675.59;;;17.10;100.00
43436;BME280;36399;51.444;-2.018;2023-05-16T11:24:33;101674.88;;;17.37;100.00
43436;BME280;36399;51.444;-2.018;2023-05-16T11:27:01;101679.31;;;17.39;100.00
43436;BME280;36399;51.444;-2.018;2023-05-16T11:29:31;101677.81;;;16.49;100.00
43436;BME280;36399;51.444;-2.018;2023-05-16T11:31:59;101677.44;;;16.09;100.00
43436;BME280;36399;51.444;-2.018;2023-05-16T11:34:25;101681.22;;;16.35;100.00
43436;BME280;36399;51.444;-2.018;2023-05-16T11:36:51;101669.44;;;16.03;100.00
43436;BME280;36399;51.444;-2.018;2023-05-16T11:39:17;101663.81;;;16.65;100.00
43436;BME280;36399;51.444;-2.018;2023-05-16T11:41:46;101657.19;;;17.43;100.00
43436;BME280;36399;51.444;-2.018;2023-05-16T11:44:12;101669.53;;;17.32;100.00
43436;BME280;36399;51.444;-2.018;2023-05-16T11:46:39;101675.69;;;16.09;100.00
43436;BME280;36399;51.444;-2.018;2023-05-16T11:49:10;101668.41;;;15.89;100.00
43436;BME280;36399;51.444;-2.018;2023-05-16T11:51:38;101672.50;;;16.49;100.00
43436;BME280;36399;51.444;-2.018;2023-05-16T11:54:04;101671.59;;;18.24;100.00
43436;BME280;36399;51.444;-2.018;2023-05-16T11:56:33;101671.59;;;18.43;95.02
43436;BME280;36399;51.444;-2.018;2023-05-16T11:59:00;101662.75;;;18.28;96.98
43436;BME280;36399;51.444;-2.018;2023-05-16T12:01:33;101668.94;;;18.40;100.00
43436;BME280;36399;51.444;-2.018;2023-05-16T12:04:00;101661.63;;;17.49;100.00
43436;BME280;36399;51.444;-2.018;2023-05-16T12:06:26;101668.81;;;17.68;100.00
43436;BME280;36399;51.444;-2.018;2023-05-16T12:08:54;101666.00;;;17.30;100.00
43436;BME280;36399;51.444;-2.018;2023-05-16T12:11:22;101657.22;;;17.52;100.00
43436;BME280;36399;51.444;-2.018;2023-05-16T12:13:48;101667.13;;;18.08;100.00
43436;BME280;36399;51.444;-2.018;2023-05-16T12:16:14;101655.53;;;19.13;100.00
43436;BME280;36399;51.444;-2.018;2023-05-16T12:18:41;101647.06;;;20.10;84.18
43436;BME280;36399;51.444;-2.018;2023-05-16T12:21:07;101647.81;;;20.34;84.32
43436;BME280;36399;51.444;-2.018;2023-05-16T12:23:33;101644.53;;;19.95;88.26
43436;BME280;36399;51.444;-2.018;2023-05-16T12:25:59;101660.91;;;17.82;96.11
43436;BME280;36399;51.444;-2.018;2023-05-16T12:28:32;101645.00;;;18.82;93.28
43436;BME280;36399;51.444;-2.018;2023-05-16T12:31:10;101652.72;;;20.83;77.87
43436;BME280;36399;51.444;-2.018;2023-05-16T12:33:43;101644.81;;;20.69;75.72
43436;BME280;36399;51.444;-2.018;2023-05-16T12:36:13;101651.84;;;19.50;83.36
43436;BME280;36399;51.444;-2.018;2023-05-16T12:38:40;101647.53;;;19.23;94.28
43436;BME280;36399;51.444;-2.018;2023-05-16T12:41:06;101666.28;;;18.43;94.97
43436;BME280;36399;51.444;-2.018;2023-05-16T12:43:32;101660.97;;;18.21;100.00
43436;BME280;36399;51.444;-2.018;2023-05-16T12:45:58;101646.75;;;18.96;93.42
43436;BME280;36399;51.444;-2.018;2023-05-16T12:48:31;101652.06;;;18.59;91.49
43436;BME280;36399;51.444;-2.018;2023-05-16T12:51:12;101645.88;;;18.69;98.49
43436;BME280;36399;51.444;-2.018;2023-05-16T12:53:43;101645.72;;;17.56;100.00
43436;BME280;36399;51.444;-2.018;2023-05-16T12:56:10;101637.59;;;17.14;100.00